createdAt,value
2023-05-09T04:11:44.131Z,10.68
2023-05-09T04:14:53.455Z,8.40
2023-05-09T04:18:04.008Z,7.55
2023-05-09T04:21:12.028Z,6.80
2023-05-09T04:24:19.880Z,7.55
2023-05-09T04:27:30.404Z,9.43
2023-05-09T04:30:37.352Z,7.70
2023-05-09T04:33:46.098Z,6.93
2023-05-09T04:36:53.878Z,8.43
2023-05-09T04:40:01.864Z,5.68
2023-05-09T04:43:07.823Z,8.23
2023-05-09T04:46:17.162Z,7.45
2023-05-09T04:49:24.164Z,7.85
2023-05-09T04:52:32.933Z,6.50
2023-05-09T04:55:40.835Z,7.90
2023-05-09T04:58:48.357Z,6.43
2023-05-09T05:01:56.821Z,6.62
2023-05-09T05:05:11.539Z,7.47
2023-05-09T05:08:19.835Z,8.43
2023-05-09T05:11:28.962Z,7.60
2023-05-09T05:14:36.944Z,7.25
2023-05-09T05:17:43.189Z,7.70
2023-05-09T05:20:49.350Z,8.18
2023-05-09T05:23:57.500Z,6.93
2023-05-09T05:27:05.416Z,6.70
2023-05-09T05:30:14.109Z,7.37
2023-05-09T05:33:22.875Z,7.05
2023-05-09T05:36:33.711Z,6.37
2023-05-09T05:39:44.356Z,6.80
2023-05-09T05:42:55.706Z,6.85
2023-05-09T05:46:03.141Z,6.82
2023-05-09T05:49:11.548Z,6.28
2023-05-09T05:52:18.548Z,7.50
2023-05-09T05:55:25.753Z,6.03
2023-05-09T05:58:33.732Z,5.28
2023-05-09T06:01:43.792Z,6.20
2023-05-09T06:04:49.247Z,7.12
2023-05-09T06:07:54.903Z,8.93
2023-05-09T06:11:02.006Z,15.18
2023-05-09T06:14:07.232Z,6.05
2023-05-09T06:17:13.262Z,7.43
2023-05-09T06:20:17.091Z,6.40
2023-05-09T06:23:23.583Z,8.13
2023-05-09T06:26:27.520Z,12.65
2023-05-09T06:29:35.200Z,6.53
2023-05-09T06:32:40.637Z,6.47
2023-05-09T06:35:47.717Z,5.75
2023-05-09T06:38:50.851Z,3.90
2023-05-09T06:41:55.907Z,5.03
2023-05-09T06:45:02.783Z,5.03
2023-05-09T06:48:09.468Z,5.30
2023-05-09T06:51:15.625Z,8.15
2023-05-09T06:54:22.794Z,7.57
2023-05-09T06:57:26.355Z,6.45
2023-05-09T07:00:29.554Z,2.78
2023-05-09T07:03:32.433Z,2.47
2023-05-09T07:06:36.272Z,7.72
2023-05-09T07:09:43.733Z,2.40
2023-05-09T07:12:52.217Z,4.18
2023-05-09T07:15:56.545Z,4.57
2023-05-09T07:19:01.491Z,2.47
2023-05-09T07:22:07.088Z,3.97
2023-05-09T07:25:11.688Z,4.47
2023-05-09T07:28:16.029Z,2.15
2023-05-09T07:31:20.934Z,2.33
2023-05-09T07:34:25.688Z,2.80
2023-05-09T07:37:31.661Z,3.00
2023-05-09T07:40:37.619Z,7.12
2023-05-09T07:43:40.601Z,2.53
2023-05-09T07:46:43.408Z,2.67
2023-05-09T07:49:49.808Z,2.10
2023-05-09T07:52:56.085Z,2.47
2023-05-09T07:56:04.077Z,7.80
2023-05-09T07:59:11.605Z,3.47
2023-05-09T08:02:20.110Z,1.65
2023-05-09T08:05:25.600Z,4.53
2023-05-09T08:08:30.943Z,2.05
2023-05-09T08:11:39.934Z,1.48
2023-05-09T08:14:44.502Z,3.05
2023-05-09T08:17:50.812Z,3.12
2023-05-09T08:20:55.279Z,2.62
2023-05-09T08:24:01.663Z,2.12
2023-05-09T08:27:07.003Z,1.50
2023-05-09T08:30:11.573Z,1.70
2023-05-09T08:33:15.434Z,2.95
2023-05-09T08:36:22.171Z,1.90
2023-05-09T08:39:26.947Z,4.43
2023-05-09T08:42:32.339Z,1.65
2023-05-09T08:45:52.675Z,1.30
2023-05-09T08:48:58.909Z,1.83
2023-05-09T08:52:05.568Z,1.50
2023-05-09T08:55:13.093Z,3.25
2023-05-09T08:58:20.428Z,1.55
2023-05-09T09:01:27.942Z,9.80
2023-05-09T09:04:32.848Z,4.45
2023-05-09T09:07:39.721Z,2.28
2023-05-09T09:10:47.697Z,1.15
2023-05-09T09:13:57.789Z,2.30
2023-05-09T09:17:03.906Z,3.25
2023-05-09T09:20:16.571Z,3.08
2023-05-09T09:23:25.902Z,3.37
2023-05-09T09:26:33.603Z,6.47
2023-05-09T09:29:39.778Z,2.90
2023-05-09T09:32:44.730Z,2.45
2023-05-09T09:35:55.707Z,1.48
2023-05-09T09:39:02.659Z,4.45
2023-05-09T09:42:13.736Z,1.35
2023-05-09T09:45:19.131Z,1.85
2023-05-09T09:48:30.823Z,1.80
2023-05-09T09:51:34.497Z,1.55
2023-05-09T09:54:40.079Z,1.67
2023-05-09T09:57:48.504Z,3.58
2023-05-09T10:01:11.795Z,2.47
2023-05-09T10:04:18.409Z,1.65
2023-05-09T10:07:23.810Z,2.95
2023-05-09T10:10:36.384Z,4.55
2023-05-09T10:13:41.052Z,4.15
2023-05-09T10:16:50.589Z,2.80
2023-05-09T10:19:56.206Z,1.27
2023-05-09T10:23:07.569Z,1.65
2023-05-09T10:29:27.484Z,3.37
2023-05-09T10:32:51.543Z,3.53
2023-05-09T10:36:01.425Z,3.22
2023-05-09T10:39:09.072Z,4.25
2023-05-09T10:42:17.168Z,2.87
2023-05-09T10:45:24.007Z,3.58
2023-05-09T10:48:29.985Z,12.35
2023-05-09T10:51:34.044Z,1.73
2023-05-09T10:54:40.127Z,1.50
2023-05-09T10:57:55.333Z,2.67
2023-05-09T11:01:01.977Z,3.33
2023-05-09T11:04:17.157Z,3.80
2023-05-09T11:07:25.887Z,2.92
2023-05-09T11:10:43.376Z,6.55
2023-05-09T11:13:46.892Z,2.35
2023-05-09T11:17:03.429Z,4.70
2023-05-09T11:20:08.833Z,3.20
2023-05-09T11:23:12.067Z,3.58
2023-05-09T11:26:16.977Z,1.60
2023-05-09T11:29:21.042Z,1.75
2023-05-09T11:32:32.807Z,2.37
2023-05-09T11:35:40.291Z,2.20
2023-05-09T11:38:49.332Z,2.75
2023-05-09T11:41:54.226Z,2.25
2023-05-09T11:44:59.189Z,1.30
2023-05-09T11:48:09.328Z,2.22
2023-05-09T11:51:21.638Z,2.03
2023-05-09T11:54:26.021Z,1.50
2023-05-09T11:57:33.941Z,4.53
2023-05-09T12:00:45.123Z,1.60
2023-05-09T12:03:49.953Z,1.55
2023-05-09T12:06:54.716Z,4.00
2023-05-09T12:09:58.263Z,3.45
2023-05-09T12:13:03.375Z,4.07
2023-05-09T12:16:09.268Z,1.70
2023-05-09T12:19:12.425Z,1.40
2023-05-09T12:22:16.461Z,1.52
2023-05-09T12:25:22.843Z,5.35
2023-05-09T12:28:27.227Z,2.20
2023-05-09T12:31:30.608Z,2.05
2023-05-09T12:34:35.901Z,1.92
2023-05-09T12:37:39.683Z,2.97
2023-05-09T12:40:48.948Z,2.35
2023-05-09T12:43:55.252Z,3.58
2023-05-09T12:47:02.342Z,3.40
2023-05-09T12:50:08.253Z,1.60
2023-05-09T12:53:13.482Z,1.65
2023-05-09T12:56:20.162Z,1.92
2023-05-09T12:59:29.427Z,2.83
2023-05-09T13:02:37.939Z,5.00
2023-05-09T13:05:42.754Z,2.40
2023-05-09T13:09:02.181Z,2.75
2023-05-09T13:12:10.528Z,1.60
2023-05-09T13:15:23.465Z,2.30
2023-05-09T13:18:28.201Z,2.80
2023-05-09T13:21:33.354Z,2.20
2023-05-09T13:24:37.705Z,3.40
2023-05-09T13:27:42.330Z,2.67
2023-05-09T13:30:49.182Z,1.92
2023-05-09T13:33:54.513Z,3.25
2023-05-09T13:36:59.552Z,1.80
2023-05-09T13:40:05.805Z,1.85
2023-05-09T13:43:11.940Z,1.85
2023-05-09T13:46:17.036Z,2.97
2023-05-09T13:49:24.058Z,1.77
2023-05-09T13:52:31.866Z,1.58
2023-05-09T13:55:37.202Z,2.25
2023-05-09T13:58:41.225Z,4.15
2023-05-09T14:01:46.719Z,2.47
2023-05-09T14:04:56.267Z,1.58
2023-05-09T14:08:03.992Z,2.90
2023-05-09T14:11:10.248Z,4.95
2023-05-09T14:14:15.740Z,3.92
2023-05-09T14:17:23.103Z,1.70
2023-05-09T14:20:29.482Z,1.48
2023-05-09T14:23:35.466Z,2.08
2023-05-09T14:26:41.825Z,3.78
2023-05-09T14:29:46.914Z,7.32
2023-05-09T14:32:53.682Z,3.70
2023-05-09T14:36:01.748Z,4.97
2023-05-09T14:39:07.526Z,3.28
2023-05-09T14:42:15.825Z,3.83
2023-05-09T14:45:20.741Z,1.80
2023-05-09T14:48:27.717Z,2.40
2023-05-09T14:51:34.351Z,1.75
2023-05-09T14:54:40.039Z,1.90
2023-05-09T14:57:46.115Z,2.25
2023-05-09T15:00:54.085Z,1.92
2023-05-09T15:04:00.950Z,2.10
2023-05-09T15:07:10.090Z,4.60
2023-05-09T15:10:15.239Z,2.40
2023-05-09T15:13:25.062Z,1.70
2023-05-09T15:16:34.250Z,1.62
2023-05-09T15:19:44.942Z,2.50
2023-05-09T15:22:54.054Z,2.97
2023-05-09T15:26:02.825Z,1.87
2023-05-09T15:29:07.803Z,1.92
2023-05-09T15:32:13.211Z,2.97
2023-05-09T15:35:20.144Z,1.80
2023-05-09T15:38:26.396Z,1.55
2023-05-09T15:41:35.231Z,2.05
2023-05-09T15:44:45.257Z,3.78
